sensor_id;sensor_type;location;lat;lon;timestamp;P1;durP1;ratioP1;P2;durP2;ratioP2
10096;SDS011;5087;42.662;23.466;2023-11-19T00:02:25;4.20;;;4.10;;
10096;SDS011;5087;42.662;23.466;2023-11-19T00:04:54;4.20;;;4.10;;
10096;SDS011;5087;42.662;23.466;2023-11-19T00:07:21;4.10;;;4.00;;
10096;SDS011;5087;42.662;23.466;2023-11-19T00:09:49;4.40;;;4.30;;
10096;SDS011;5087;42.662;23.466;2023-11-19T00:12:16;4.37;;;4.27;;
10096;SDS011;5087;42.662;23.466;2023-11-19T00:14:44;4.20;;;4.10;;
10096;SDS011;5087;42.662;23.466;2023-11-19T00:17:12;4.10;;;4.00;;
10096;SDS011;5087;42.662;23.466;2023-11-19T00:19:40;4.20;;;4.10;;
10096;SDS011;5087;42.662;23.466;2023-11-19T00:22:07;4.60;;;4.50;;
10096;SDS011;5087;42.662;23.466;2023-11-19T00:24:34;4.40;;;4.30;;
10096;SDS011;5087;42.662;23.466;2023-11-19T00:27:01;4.20;;;4.10;;
10096;SDS011;5087;42.662;23.466;2023-11-19T00:29:29;3.97;;;3.93;;
10096;SDS011;5087;42.662;23.466;2023-11-19T00:31:56;3.97;;;3.90;;
10096;SDS011;5087;42.662;23.466;2023-11-19T00:34:25;4.10;;;4.00;;
10096;SDS011;5087;42.662;23.466;2023-11-19T00:36:52;4.10;;;4.00;;
10096;SDS011;5087;42.662;23.466;2023-11-19T00:39:20;4.10;;;4.00;;
10096;SDS011;5087;42.662;23.466;2023-11-19T00:41:48;4.20;;;4.10;;
10096;SDS011;5087;42.662;23.466;2023-11-19T00:44:15;4.47;;;4.37;;
10096;SDS011;5087;42.662;23.466;2023-11-19T00:46:42;4.60;;;4.50;;
10096;SDS011;5087;42.662;23.466;2023-11-19T00:49:09;4.57;;;4.47;;
10096;SDS011;5087;42.662;23.466;2023-11-19T00:51:39;4.27;;;4.17;;
10096;SDS011;5087;42.662;23.466;2023-11-19T00:54:06;4.30;;;4.20;;
10096;SDS011;5087;42.662;23.466;2023-11-19T00:56:36;4.27;;;4.17;;
10096;SDS011;5087;42.662;23.466;2023-11-19T00:59:03;4.33;;;4.23;;
10096;SDS011;5087;42.662;23.466;2023-11-19T01:01:31;4.10;;;4.00;;
10096;SDS011;5087;42.662;23.466;2023-11-19T01:03:59;4.30;;;4.20;;
10096;SDS011;5087;42.662;23.466;2023-11-19T01:06:29;4.20;;;4.10;;
10096;SDS011;5087;42.662;23.466;2023-11-19T01:08:58;3.87;;;3.87;;
10096;SDS011;5087;42.662;23.466;2023-11-19T01:11:26;4.80;;;4.70;;
10096;SDS011;5087;42.662;23.466;2023-11-19T01:13:53;4.43;;;4.33;;
10096;SDS011;5087;42.662;23.466;2023-11-19T01:16:52;4.57;;;4.47;;
10096;SDS011;5087;42.662;23.466;2023-11-19T01:19:20;4.53;;;4.43;;
10096;SDS011;5087;42.662;23.466;2023-11-19T01:21:49;4.20;;;4.10;;
10096;SDS011;5087;42.662;23.466;2023-11-19T01:24:18;4.23;;;4.13;;
10096;SDS011;5087;42.662;23.466;2023-11-19T01:26:46;4.30;;;4.20;;
10096;SDS011;5087;42.662;23.466;2023-11-19T01:29:13;3.90;;;3.90;;
10096;SDS011;5087;42.662;23.466;2023-11-19T01:31:41;4.57;;;4.47;;
10096;SDS011;5087;42.662;23.466;2023-11-19T01:34:12;4.50;;;4.40;;
10096;SDS011;5087;42.662;23.466;2023-11-19T01:36:40;4.67;;;4.57;;
10096;SDS011;5087;42.662;23.466;2023-11-19T01:39:08;4.43;;;4.33;;
10096;SDS011;5087;42.662;23.466;2023-11-19T01:41:37;4.43;;;4.33;;
10096;SDS011;5087;42.662;23.466;2023-11-19T01:44:05;4.53;;;4.43;;
10096;SDS011;5087;42.662;23.466;2023-11-19T01:46:33;4.47;;;4.37;;
10096;SDS011;5087;42.662;23.466;2023-11-19T01:49:02;4.53;;;4.43;;
10096;SDS011;5087;42.662;23.466;2023-11-19T01:51:31;4.60;;;4.50;;
10096;SDS011;5087;42.662;23.466;2023-11-19T01:54:00;4.60;;;4.50;;
10096;SDS011;5087;42.662;23.466;2023-11-19T01:56:29;4.27;;;4.17;;
10096;SDS011;5087;42.662;23.466;2023-11-19T01:59:00;4.40;;;4.30;;
10096;SDS011;5087;42.662;23.466;2023-11-19T02:01:28;4.30;;;4.20;;
10096;SDS011;5087;42.662;23.466;2023-11-19T02:03:58;4.30;;;4.20;;
10096;SDS011;5087;42.662;23.466;2023-11-19T02:06:25;4.43;;;4.33;;
10096;SDS011;5087;42.662;23.466;2023-11-19T02:08:54;4.40;;;4.30;;
10096;SDS011;5087;42.662;23.466;2023-11-19T02:11:22;4.30;;;4.20;;
10096;SDS011;5087;42.662;23.466;2023-11-19T02:13:54;4.30;;;4.20;;
10096;SDS011;5087;42.662;23.466;2023-11-19T02:16:24;4.17;;;4.07;;
10096;SDS011;5087;42.662;23.466;2023-11-19T02:18:52;4.70;;;4.60;;
10096;SDS011;5087;42.662;23.466;2023-11-19T02:21:19;4.50;;;4.40;;
10096;SDS011;5087;42.662;23.466;2023-11-19T02:23:46;4.20;;;4.10;;
10096;SDS011;5087;42.662;23.466;2023-11-19T02:26:14;4.47;;;4.37;;
10096;SDS011;5087;42.662;23.466;2023-11-19T02:28:46;4.60;;;4.50;;
10096;SDS011;5087;42.662;23.466;2023-11-19T02:31:13;4.50;;;4.40;;
10096;SDS011;5087;42.662;23.466;2023-11-19T02:33:41;4.70;;;4.60;;
10096;SDS011;5087;42.662;23.466;2023-11-19T02:36:08;4.50;;;4.40;;
10096;SDS011;5087;42.662;23.466;2023-11-19T02:38:36;4.30;;;4.20;;
10096;SDS011;5087;42.662;23.466;2023-11-19T02:41:04;4.30;;;4.20;;
10096;SDS011;5087;42.662;23.466;2023-11-19T02:43:32;4.20;;;4.10;;
10096;SDS011;5087;42.662;23.466;2023-11-19T02:46:02;4.37;;;4.27;;
10096;SDS011;5087;42.662;23.466;2023-11-19T02:48:32;4.30;;;4.20;;
10096;SDS011;5087;42.662;23.466;2023-11-19T02:51:00;4.30;;;4.20;;
10096;SDS011;5087;42.662;23.466;2023-11-19T02:53:29;4.37;;;4.27;;
10096;SDS011;5087;42.662;23.466;2023-11-19T02:55:57;4.33;;;4.23;;
10096;SDS011;5087;42.662;23.466;2023-11-19T02:58:31;4.17;;;4.07;;
10096;SDS011;5087;42.662;23.466;2023-11-19T03:01:01;4.10;;;4.00;;
10096;SDS011;5087;42.662;23.466;2023-11-19T03:03:38;4.37;;;4.27;;
10096;SDS011;5087;42.662;23.466;2023-11-19T03:06:07;4.60;;;4.50;;
10096;SDS011;5087;42.662;23.466;2023-11-19T03:08:35;4.30;;;4.20;;
10096;SDS011;5087;42.662;23.466;2023-11-19T03:11:06;4.10;;;4.00;;
10096;SDS011;5087;42.662;23.466;2023-11-19T03:13:34;4.20;;;4.10;;
10096;SDS011;5087;42.662;23.466;2023-11-19T03:16:05;4.50;;;4.40;;
10096;SDS011;5087;42.662;23.466;2023-11-19T03:18:33;4.40;;;4.30;;
10096;SDS011;5087;42.662;23.466;2023-11-19T03:21:04;4.50;;;4.40;;
10096;SDS011;5087;42.662;23.466;2023-11-19T03:23:32;4.57;;;4.47;;
10096;SDS011;5087;42.662;23.466;2023-11-19T03:25:59;4.30;;;4.20;;
10096;SDS011;5087;42.662;23.466;2023-11-19T03:28:29;4.37;;;4.27;;
10096;SDS011;5087;42.662;23.466;2023-11-19T03:30:57;4.80;;;4.70;;
10096;SDS011;5087;42.662;23.466;2023-11-19T03:33:26;4.53;;;4.43;;
10096;SDS011;5087;42.662;23.466;2023-11-19T03:35:53;4.27;;;4.17;;
10096;SDS011;5087;42.662;23.466;2023-11-19T03:38:22;4.30;;;4.20;;
10096;SDS011;5087;42.662;23.466;2023-11-19T03:40:50;4.67;;;4.57;;
10096;SDS011;5087;42.662;23.466;2023-11-19T03:43:17;4.47;;;4.37;;
10096;SDS011;5087;42.662;23.466;2023-11-19T03:45:45;4.83;;;4.73;;
10096;SDS011;5087;42.662;23.466;2023-11-19T03:48:13;4.73;;;4.63;;
10096;SDS011;5087;42.662;23.466;2023-11-19T03:50:44;4.57;;;4.47;;
10096;SDS011;5087;42.662;23.466;2023-11-19T03:53:11;4.63;;;4.53;;
10096;SDS011;5087;42.662;23.466;2023-11-19T03:55:39;4.73;;;4.63;;
10096;SDS011;5087;42.662;23.466;2023-11-19T03:58:06;4.70;;;4.60;;
10096;SDS011;5087;42.662;23.466;2023-11-19T04:00:34;4.57;;;4.47;;
10096;SDS011;5087;42.662;23.466;2023-11-19T04:03:01;4.90;;;4.80;;
10096;SDS011;5087;42.662;23.466;2023-11-19T04:05:31;4.80;;;4.70;;
10096;SDS011;5087;42.662;23.466;2023-11-19T04:08:01;5.00;;;4.90;;
10096;SDS011;5087;42.662;23.466;2023-11-19T04:10:31;5.13;;;5.03;;
10096;SDS011;5087;42.662;23.466;2023-11-19T04:12:59;4.73;;;4.63;;
10096;SDS011;5087;42.662;23.466;2023-11-19T04:15:26;4.40;;;4.30;;
10096;SDS011;5087;42.662;23.466;2023-11-19T04:17:54;4.40;;;4.30;;
10096;SDS011;5087;42.662;23.466;2023-11-19T04:20:22;4.80;;;4.70;;
10096;SDS011;5087;42.662;23.466;2023-11-19T04:22:49;4.83;;;4.73;;
10096;SDS011;5087;42.662;23.466;2023-11-19T04:25:19;4.77;;;4.67;;
10096;SDS011;5087;42.662;23.466;2023-11-19T04:27:49;4.90;;;4.80;;
10096;SDS011;5087;42.662;23.466;2023-11-19T04:30:17;5.10;;;5.00;;
10096;SDS011;5087;42.662;23.466;2023-11-19T04:32:45;5.03;;;4.93;;
10096;SDS011;5087;42.662;23.466;2023-11-19T04:35:15;5.17;;;5.07;;
10096;SDS011;5087;42.662;23.466;2023-11-19T04:37:44;5.03;;;4.93;;
10096;SDS011;5087;42.662;23.466;2023-11-19T04:40:13;5.00;;;4.90;;
10096;SDS011;5087;42.662;23.466;2023-11-19T04:42:42;5.07;;;4.97;;
10096;SDS011;5087;42.662;23.466;2023-11-19T04:45:09;5.33;;;5.23;;
10096;SDS011;5087;42.662;23.466;2023-11-19T04:47:37;5.20;;;5.10;;
10096;SDS011;5087;42.662;23.466;2023-11-19T04:50:04;5.17;;;5.07;;
10096;SDS011;5087;42.662;23.466;2023-11-19T04:52:32;4.70;;;4.60;;
10096;SDS011;5087;42.662;23.466;2023-11-19T04:55:00;4.80;;;4.70;;
10096;SDS011;5087;42.662;23.466;2023-11-19T04:57:27;5.10;;;5.00;;
10096;SDS011;5087;42.662;23.466;2023-11-19T04:59:56;5.50;;;5.40;;
10096;SDS011;5087;42.662;23.466;2023-11-19T05:02:23;5.03;;;4.93;;
10096;SDS011;5087;42.662;23.466;2023-11-19T05:04:50;4.80;;;4.70;;
10096;SDS011;5087;42.662;23.466;2023-11-19T05:07:18;4.70;;;4.60;;
10096;SDS011;5087;42.662;23.466;2023-11-19T05:09:46;4.97;;;4.87;;
10096;SDS011;5087;42.662;23.466;2023-11-19T05:12:13;5.17;;;5.07;;
10096;SDS011;5087;42.662;23.466;2023-11-19T05:14:40;4.70;;;4.60;;
10096;SDS011;5087;42.662;23.466;2023-11-19T05:17:15;4.57;;;4.47;;
10096;SDS011;5087;42.662;23.466;2023-11-19T05:19:43;4.93;;;4.83;;
10096;SDS011;5087;42.662;23.466;2023-11-19T05:22:10;5.00;;;4.90;;
10096;SDS011;5087;42.662;23.466;2023-11-19T05:24:38;5.10;;;5.00;;
10096;SDS011;5087;42.662;23.466;2023-11-19T05:27:06;5.20;;;5.10;;
10096;SDS011;5087;42.662;23.466;2023-11-19T05:29:33;5.27;;;5.17;;
10096;SDS011;5087;42.662;23.466;2023-11-19T05:32:01;5.03;;;4.93;;
10096;SDS011;5087;42.662;23.466;2023-11-19T05:34:34;5.20;;;5.10;;
10096;SDS011;5087;42.662;23.466;2023-11-19T05:37:01;4.80;;;4.70;;
10096;SDS011;5087;42.662;23.466;2023-11-19T05:39:29;5.07;;;4.97;;
10096;SDS011;5087;42.662;23.466;2023-11-19T05:41:56;4.70;;;4.60;;
10096;SDS011;5087;42.662;23.466;2023-11-19T05:44:24;5.00;;;4.90;;
10096;SDS011;5087;42.662;23.466;2023-11-19T05:46:52;5.00;;;4.90;;
10096;SDS011;5087;42.662;23.466;2023-11-19T05:49:26;5.03;;;4.93;;
10096;SDS011;5087;42.662;23.466;2023-11-19T05:51:56;5.10;;;5.00;;
10096;SDS011;5087;42.662;23.466;2023-11-19T05:54:23;4.93;;;4.83;;
10096;SDS011;5087;42.662;23.466;2023-11-19T05:56:51;4.90;;;4.80;;
10096;SDS011;5087;42.662;23.466;2023-11-19T05:59:20;5.27;;;5.17;;
10096;SDS011;5087;42.662;23.466;2023-11-19T06:01:48;4.90;;;4.80;;
10096;SDS011;5087;42.662;23.466;2023-11-19T06:04:15;4.90;;;4.80;;
10096;SDS011;5087;42.662;23.466;2023-11-19T06:06:43;5.00;;;4.90;;
10096;SDS011;5087;42.662;23.466;2023-11-19T06:09:11;5.03;;;4.93;;
10096;SDS011;5087;42.662;23.466;2023-11-19T06:11:39;5.13;;;5.03;;
10096;SDS011;5087;42.662;23.466;2023-11-19T06:14:06;5.00;;;4.90;;
10096;SDS011;5087;42.662;23.466;2023-11-19T06:16:34;4.90;;;4.80;;
10096;SDS011;5087;42.662;23.466;2023-11-19T06:19:02;5.00;;;4.90;;
10096;SDS011;5087;42.662;23.466;2023-11-19T06:21:32;5.17;;;5.07;;
10096;SDS011;5087;42.662;23.466;2023-11-19T06:24:01;5.10;;;5.00;;
10096;SDS011;5087;42.662;23.466;2023-11-19T06:26:31;5.10;;;5.00;;
10096;SDS011;5087;42.662;23.466;2023-11-19T06:28:58;5.00;;;4.90;;
10096;SDS011;5087;42.662;23.466;2023-11-19T06:31:26;5.00;;;4.90;;
10096;SDS011;5087;42.662;23.466;2023-11-19T06:33:54;4.90;;;4.80;;
10096;SDS011;5087;42.662;23.466;2023-11-19T06:36:21;4.87;;;4.77;;
10096;SDS011;5087;42.662;23.466;2023-11-19T06:38:49;5.30;;;5.20;;
10096;SDS011;5087;42.662;23.466;2023-11-19T06:41:16;5.27;;;5.17;;
10096;SDS011;5087;42.662;23.466;2023-11-19T06:43:45;5.00;;;4.90;;
10096;SDS011;5087;42.662;23.466;2023-11-19T06:46:18;5.10;;;5.00;;
10096;SDS011;5087;42.662;23.466;2023-11-19T06:48:46;5.20;;;5.10;;
10096;SDS011;5087;42.662;23.466;2023-11-19T06:51:13;5.40;;;5.30;;
10096;SDS011;5087;42.662;23.466;2023-11-19T06:53:42;5.30;;;5.20;;
10096;SDS011;5087;42.662;23.466;2023-11-19T06:56:17;5.40;;;5.30;;
10096;SDS011;5087;42.662;23.466;2023-11-19T06:58:47;5.30;;;5.20;;
10096;SDS011;5087;42.662;23.466;2023-11-19T07:01:14;5.50;;;5.40;;
10096;SDS011;5087;42.662;23.466;2023-11-19T07:03:44;5.60;;;5.50;;
10096;SDS011;5087;42.662;23.466;2023-11-19T07:06:11;5.73;;;5.63;;
10096;SDS011;5087;42.662;23.466;2023-11-19T07:08:42;5.87;;;5.77;;
10096;SDS011;5087;42.662;23.466;2023-11-19T07:11:10;5.60;;;5.50;;
10096;SDS011;5087;42.662;23.466;2023-11-19T07:13:41;5.20;;;5.10;;
10096;SDS011;5087;42.662;23.466;2023-11-19T07:16:10;5.50;;;5.40;;
10096;SDS011;5087;42.662;23.466;2023-11-19T07:18:38;5.60;;;5.50;;
10096;SDS011;5087;42.662;23.466;2023-11-19T07:21:07;5.47;;;5.37;;
10096;SDS011;5087;42.662;23.466;2023-11-19T07:23:36;5.60;;;5.50;;
10096;SDS011;5087;42.662;23.466;2023-11-19T07:26:06;5.60;;;5.50;;
10096;SDS011;5087;42.662;23.466;2023-11-19T07:28:34;5.37;;;5.27;;
10096;SDS011;5087;42.662;23.466;2023-11-19T07:31:09;5.40;;;5.30;;
10096;SDS011;5087;42.662;23.466;2023-11-19T07:33:39;5.80;;;5.70;;
10096;SDS011;5087;42.662;23.466;2023-11-19T07:36:08;5.60;;;5.50;;
10096;SDS011;5087;42.662;23.466;2023-11-19T07:38:36;5.37;;;5.27;;
10096;SDS011;5087;42.662;23.466;2023-11-19T07:41:04;5.37;;;5.27;;
10096;SDS011;5087;42.662;23.466;2023-11-19T07:43:32;5.30;;;5.20;;
10096;SDS011;5087;42.662;23.466;2023-11-19T07:46:00;5.57;;;5.47;;
10096;SDS011;5087;42.662;23.466;2023-11-19T07:48:31;5.63;;;5.53;;
10096;SDS011;5087;42.662;23.466;2023-11-19T07:51:00;5.47;;;5.37;;
10096;SDS011;5087;42.662;23.466;2023-11-19T07:53:28;5.67;;;5.57;;
10096;SDS011;5087;42.662;23.466;2023-11-19T07:55:55;5.37;;;5.27;;
10096;SDS011;5087;42.662;23.466;2023-11-19T07:58:25;5.40;;;5.30;;
10096;SDS011;5087;42.662;23.466;2023-11-19T08:00:52;5.40;;;5.30;;
10096;SDS011;5087;42.662;23.466;2023-11-19T08:03:20;5.30;;;5.20;;
10096;SDS011;5087;42.662;23.466;2023-11-19T08:05:50;5.50;;;5.40;;
10096;SDS011;5087;42.662;23.466;2023-11-19T08:08:17;5.57;;;5.47;;
10096;SDS011;5087;42.662;23.466;2023-11-19T08:10:45;5.37;;;5.27;;
10096;SDS011;5087;42.662;23.466;2023-11-19T08:13:13;5.30;;;5.20;;
10096;SDS011;5087;42.662;23.466;2023-11-19T08:15:40;5.27;;;5.17;;
10096;SDS011;5087;42.662;23.466;2023-11-19T08:18:08;5.13;;;5.03;;
10096;SDS011;5087;42.662;23.466;2023-11-19T08:20:36;5.10;;;5.00;;
10096;SDS011;5087;42.662;23.466;2023-11-19T08:23:05;5.20;;;5.10;;
10096;SDS011;5087;42.662;23.466;2023-11-19T08:25:33;5.30;;;5.20;;
10096;SDS011;5087;42.662;23.466;2023-11-19T08:28:07;5.13;;;5.03;;
10096;SDS011;5087;42.662;23.466;2023-11-19T08:30:36;4.87;;;4.77;;
10096;SDS011;5087;42.662;23.466;2023-11-19T08:33:07;4.60;;;4.50;;
10096;SDS011;5087;42.662;23.466;2023-11-19T08:35:35;4.83;;;4.73;;
10096;SDS011;5087;42.662;23.466;2023-11-19T08:38:03;4.60;;;4.50;;
10096;SDS011;5087;42.662;23.466;2023-11-19T08:40:35;4.60;;;4.50;;
10096;SDS011;5087;42.662;23.466;2023-11-19T08:43:07;4.77;;;4.67;;
10096;SDS011;5087;42.662;23.466;2023-11-19T08:45:34;4.57;;;4.47;;
10096;SDS011;5087;42.662;23.466;2023-11-19T08:48:05;4.70;;;4.60;;
10096;SDS011;5087;42.662;23.466;2023-11-19T08:50:32;4.60;;;4.50;;
10096;SDS011;5087;42.662;23.466;2023-11-19T08:53:00;4.53;;;4.43;;
10096;SDS011;5087;42.662;23.466;2023-11-19T08:55:27;4.70;;;4.60;;
10096;SDS011;5087;42.662;23.466;2023-11-19T08:57:56;4.60;;;4.50;;
10096;SDS011;5087;42.662;23.466;2023-11-19T09:00:24;4.20;;;4.10;;
10096;SDS011;5087;42.662;23.466;2023-11-19T09:02:51;4.50;;;4.40;;
10096;SDS011;5087;42.662;23.466;2023-11-19T09:05:18;4.60;;;4.50;;
10096;SDS011;5087;42.662;23.466;2023-11-19T09:07:46;4.40;;;4.30;;
10096;SDS011;5087;42.662;23.466;2023-11-19T09:10:15;4.30;;;4.20;;
10096;SDS011;5087;42.662;23.466;2023-11-19T09:12:42;4.27;;;4.17;;
10096;SDS011;5087;42.662;23.466;2023-11-19T09:15:11;4.30;;;4.20;;
10096;SDS011;5087;42.662;23.466;2023-11-19T09:17:39;3.80;;;3.80;;
10096;SDS011;5087;42.662;23.466;2023-11-19T09:20:07;3.97;;;3.93;;
10096;SDS011;5087;42.662;23.466;2023-11-19T09:22:37;3.83;;;3.83;;
10096;SDS011;5087;42.662;23.466;2023-11-19T09:25:05;3.30;;;3.30;;
10096;SDS011;5087;42.662;23.466;2023-11-19T09:27:34;3.47;;;3.47;;
10096;SDS011;5087;42.662;23.466;2023-11-19T09:30:02;3.50;;;3.50;;
10096;SDS011;5087;42.662;23.466;2023-11-19T09:32:34;3.57;;;3.57;;
10096;SDS011;5087;42.662;23.466;2023-11-19T09:35:03;3.30;;;3.30;;
10096;SDS011;5087;42.662;23.466;2023-11-19T09:37:32;3.70;;;3.70;;
10096;SDS011;5087;42.662;23.466;2023-11-19T09:39:59;3.40;;;3.40;;
10096;SDS011;5087;42.662;23.466;2023-11-19T09:42:27;3.30;;;3.30;;
10096;SDS011;5087;42.662;23.466;2023-11-19T09:44:56;3.63;;;3.63;;
10096;SDS011;5087;42.662;23.466;2023-11-19T09:47:26;3.60;;;3.60;;
10096;SDS011;5087;42.662;23.466;2023-11-19T09:49:57;3.57;;;3.57;;
10096;SDS011;5087;42.662;23.466;2023-11-19T09:52:25;3.60;;;3.60;;
10096;SDS011;5087;42.662;23.466;2023-11-19T09:54:52;3.30;;;3.30;;
10096;SDS011;5087;42.662;23.466;2023-11-19T09:57:20;3.60;;;3.60;;
10096;SDS011;5087;42.662;23.466;2023-11-19T09:59:47;3.50;;;3.50;;
10096;SDS011;5087;42.662;23.466;2023-11-19T10:02:17;3.50;;;3.50;;
10096;SDS011;5087;42.662;23.466;2023-11-19T10:04:45;3.30;;;3.30;;
10096;SDS011;5087;42.662;23.466;2023-11-19T10:07:17;3.10;;;3.10;;
10096;SDS011;5087;42.662;23.466;2023-11-19T10:09:44;3.30;;;3.30;;
10096;SDS011;5087;42.662;23.466;2023-11-19T10:12:13;3.40;;;3.40;;
10096;SDS011;5087;42.662;23.466;2023-11-19T10:14:42;3.30;;;3.30;;
10096;SDS011;5087;42.662;23.466;2023-11-19T10:17:11;3.23;;;3.23;;
10096;SDS011;5087;42.662;23.466;2023-11-19T10:19:39;3.20;;;3.20;;
10096;SDS011;5087;42.662;23.466;2023-11-19T10:22:08;3.40;;;3.40;;
10096;SDS011;5087;42.662;23.466;2023-11-19T10:24:36;3.30;;;3.30;;
10096;SDS011;5087;42.662;23.466;2023-11-19T10:27:06;3.20;;;3.20;;
10096;SDS011;5087;42.662;23.466;2023-11-19T10:29:35;3.20;;;3.20;;
10096;SDS011;5087;42.662;23.466;2023-11-19T10:32:03;2.90;;;2.90;;
10096;SDS011;5087;42.662;23.466;2023-11-19T10:34:31;2.50;;;2.50;;
10096;SDS011;5087;42.662;23.466;2023-11-19T10:36:59;2.60;;;2.60;;
10096;SDS011;5087;42.662;23.466;2023-11-19T10:39:29;2.70;;;2.70;;
10096;SDS011;5087;42.662;23.466;2023-11-19T10:42:22;2.87;;;2.87;;
10096;SDS011;5087;42.662;23.466;2023-11-19T10:44:50;2.60;;;2.60;;
10096;SDS011;5087;42.662;23.466;2023-11-19T10:47:18;2.30;;;2.30;;
10096;SDS011;5087;42.662;23.466;2023-11-19T10:49:47;2.30;;;2.30;;
10096;SDS011;5087;42.662;23.466;2023-11-19T10:52:15;2.60;;;2.60;;
10096;SDS011;5087;42.662;23.466;2023-11-19T10:54:48;2.60;;;2.60;;
10096;SDS011;5087;42.662;23.466;2023-11-19T10:57:20;2.40;;;2.40;;
10096;SDS011;5087;42.662;23.466;2023-11-19T10:59:49;2.30;;;2.30;;
10096;SDS011;5087;42.662;23.466;2023-11-19T11:02:22;2.40;;;2.40;;
10096;SDS011;5087;42.662;23.466;2023-11-19T11:04:53;2.17;;;2.17;;
10096;SDS011;5087;42.662;23.466;2023-11-19T11:07:22;2.20;;;2.20;;
10096;SDS011;5087;42.662;23.466;2023-11-19T11:09:51;2.10;;;2.10;;
10096;SDS011;5087;42.662;23.466;2023-11-19T11:12:21;2.10;;;2.10;;
10096;SDS011;5087;42.662;23.466;2023-11-19T11:14:50;2.20;;;2.20;;
10096;SDS011;5087;42.662;23.466;2023-11-19T11:17:20;2.40;;;2.40;;
10096;SDS011;5087;42.662;23.466;2023-11-19T11:19:53;2.40;;;2.40;;
10096;SDS011;5087;42.662;23.466;2023-11-19T11:22:21;2.27;;;2.27;;
10096;SDS011;5087;42.662;23.466;2023-11-19T11:25:06;2.23;;;2.23;;
10096;SDS011;5087;42.662;23.466;2023-11-19T11:30:44;2.50;;;2.50;;
10096;SDS011;5087;42.662;23.466;2023-11-19T11:33:32;2.23;;;2.23;;
10096;SDS011;5087;42.662;23.466;2023-11-19T11:36:11;2.20;;;2.20;;
10096;SDS011;5087;42.662;23.466;2023-11-19T11:38:45;2.30;;;2.30;;
10096;SDS011;5087;42.662;23.466;2023-11-19T11:41:15;2.10;;;2.10;;
10096;SDS011;5087;42.662;23.466;2023-11-19T11:43:48;2.10;;;2.10;;
10096;SDS011;5087;42.662;23.466;2023-11-19T11:49:28;2.40;;;2.40;;
10096;SDS011;5087;42.662;23.466;2023-11-19T11:51:58;2.10;;;2.10;;
10096;SDS011;5087;42.662;23.466;2023-11-19T11:54:28;2.17;;;2.17;;
10096;SDS011;5087;42.662;23.466;2023-11-19T11:57:01;2.13;;;2.13;;
10096;SDS011;5087;42.662;23.466;2023-11-19T11:59:41;2.00;;;2.00;;
10096;SDS011;5087;42.662;23.466;2023-11-19T12:02:10;2.00;;;2.00;;
10096;SDS011;5087;42.662;23.466;2023-11-19T12:04:39;1.90;;;1.90;;
10096;SDS011;5087;42.662;23.466;2023-11-19T12:07:08;1.90;;;1.90;;
10096;SDS011;5087;42.662;23.466;2023-11-19T12:09:40;2.03;;;2.03;;
10096;SDS011;5087;42.662;23.466;2023-11-19T12:12:12;1.80;;;1.80;;
10096;SDS011;5087;42.662;23.466;2023-11-19T12:15:01;2.00;;;2.00;;
10096;SDS011;5087;42.662;23.466;2023-11-19T12:17:41;2.00;;;2.00;;
10096;SDS011;5087;42.662;23.466;2023-11-19T12:20:10;1.90;;;1.90;;
10096;SDS011;5087;42.662;23.466;2023-11-19T12:22:37;1.80;;;1.80;;
10096;SDS011;5087;42.662;23.466;2023-11-19T12:25:05;1.70;;;1.70;;
10096;SDS011;5087;42.662;23.466;2023-11-19T12:27:34;1.60;;;1.60;;
10096;SDS011;5087;42.662;23.466;2023-11-19T12:30:03;1.30;;;1.30;;
10096;SDS011;5087;42.662;23.466;2023-11-19T12:32:38;1.60;;;1.60;;
10096;SDS011;5087;42.662;23.466;2023-11-19T12:35:06;1.50;;;1.50;;
10096;SDS011;5087;42.662;23.466;2023-11-19T12:37:41;1.50;;;1.50;;
10096;SDS011;5087;42.662;23.466;2023-11-19T12:40:13;1.73;;;1.73;;
10096;SDS011;5087;42.662;23.466;2023-11-19T12:42:42;1.70;;;1.70;;
10096;SDS011;5087;42.662;23.466;2023-11-19T12:45:12;1.50;;;1.50;;
10096;SDS011;5087;42.662;23.466;2023-11-19T12:47:40;1.50;;;1.50;;
10096;SDS011;5087;42.662;23.466;2023-11-19T12:50:07;1.40;;;1.40;;
10096;SDS011;5087;42.662;23.466;2023-11-19T12:52:36;1.50;;;1.50;;
10096;SDS011;5087;42.662;23.466;2023-11-19T12:57:53;1.60;;;1.60;;
10096;SDS011;5087;42.662;23.466;2023-11-19T13:00:22;1.40;;;1.40;;
10096;SDS011;5087;42.662;23.466;2023-11-19T13:02:54;1.57;;;1.57;;
10096;SDS011;5087;42.662;23.466;2023-11-19T13:05:23;1.63;;;1.63;;
10096;SDS011;5087;42.662;23.466;2023-11-19T13:07:59;1.50;;;1.50;;
10096;SDS011;5087;42.662;23.466;2023-11-19T13:10:32;1.50;;;1.50;;
10096;SDS011;5087;42.662;23.466;2023-11-19T13:13:03;1.60;;;1.60;;
10096;SDS011;5087;42.662;23.466;2023-11-19T13:15:48;1.53;;;1.53;;
10096;SDS011;5087;42.662;23.466;2023-11-19T13:18:28;1.70;;;1.70;;
10096;SDS011;5087;42.662;23.466;2023-11-19T13:20:55;1.80;;;1.80;;
10096;SDS011;5087;42.662;23.466;2023-11-19T13:23:23;1.70;;;1.70;;
10096;SDS011;5087;42.662;23.466;2023-11-19T13:25:50;1.60;;;1.60;;
10096;SDS011;5087;42.662;23.466;2023-11-19T13:28:18;1.90;;;1.90;;
10096;SDS011;5087;42.662;23.466;2023-11-19T13:30:47;1.70;;;1.70;;
10096;SDS011;5087;42.662;23.466;2023-11-19T13:33:20;1.80;;;1.80;;
10096;SDS011;5087;42.662;23.466;2023-11-19T13:35:48;1.87;;;1.87;;
10096;SDS011;5087;42.662;23.466;2023-11-19T13:38:15;1.80;;;1.80;;
10096;SDS011;5087;42.662;23.466;2023-11-19T13:40:43;1.70;;;1.70;;
10096;SDS011;5087;42.662;23.466;2023-11-19T13:43:11;1.70;;;1.70;;
10096;SDS011;5087;42.662;23.466;2023-11-19T13:45:38;1.60;;;1.60;;
10096;SDS011;5087;42.662;23.466;2023-11-19T13:48:07;1.40;;;1.40;;
10096;SDS011;5087;42.662;23.466;2023-11-19T13:50:35;1.70;;;1.70;;
10096;SDS011;5087;42.662;23.466;2023-11-19T13:53:02;1.50;;;1.50;;
10096;SDS011;5087;42.662;23.466;2023-11-19T13:55:30;1.60;;;1.60;;
10096;SDS011;5087;42.662;23.466;2023-11-19T13:57:57;1.60;;;1.60;;
10096;SDS011;5087;42.662;23.466;2023-11-19T14:00:25;1.53;;;1.53;;
10096;SDS011;5087;42.662;23.466;2023-11-19T14:02:52;1.30;;;1.30;;
10096;SDS011;5087;42.662;23.466;2023-11-19T14:05:21;1.30;;;1.30;;
10096;SDS011;5087;42.662;23.466;2023-11-19T14:07:49;1.60;;;1.60;;
10096;SDS011;5087;42.662;23.466;2023-11-19T14:10:17;1.30;;;1.30;;
10096;SDS011;5087;42.662;23.466;2023-11-19T14:12:44;1.70;;;1.70;;
10096;SDS011;5087;42.662;23.466;2023-11-19T14:15:12;1.40;;;1.40;;
10096;SDS011;5087;42.662;23.466;2023-11-19T14:17:39;1.70;;;1.70;;
10096;SDS011;5087;42.662;23.466;2023-11-19T14:20:07;1.80;;;1.80;;
10096;SDS011;5087;42.662;23.466;2023-11-19T14:22:40;1.70;;;1.70;;
10096;SDS011;5087;42.662;23.466;2023-11-19T14:25:08;2.10;;;2.10;;
10096;SDS011;5087;42.662;23.466;2023-11-19T14:27:36;2.10;;;2.10;;
10096;SDS011;5087;42.662;23.466;2023-11-19T14:30:07;2.40;;;2.40;;
10096;SDS011;5087;42.662;23.466;2023-11-19T14:32:37;2.30;;;2.30;;
10096;SDS011;5087;42.662;23.466;2023-11-19T14:35:05;2.10;;;2.10;;
10096;SDS011;5087;42.662;23.466;2023-11-19T14:37:33;2.40;;;2.40;;
10096;SDS011;5087;42.662;23.466;2023-11-19T14:40:02;2.50;;;2.50;;
10096;SDS011;5087;42.662;23.466;2023-11-19T14:42:34;2.27;;;2.27;;
10096;SDS011;5087;42.662;23.466;2023-11-19T14:45:02;2.27;;;2.27;;
10096;SDS011;5087;42.662;23.466;2023-11-19T14:47:32;2.27;;;2.27;;
10096;SDS011;5087;42.662;23.466;2023-11-19T14:50:00;2.60;;;2.60;;
10096;SDS011;5087;42.662;23.466;2023-11-19T14:52:28;2.40;;;2.40;;
10096;SDS011;5087;42.662;23.466;2023-11-19T14:54:55;2.30;;;2.30;;
10096;SDS011;5087;42.662;23.466;2023-11-19T14:57:25;2.50;;;2.50;;
10096;SDS011;5087;42.662;23.466;2023-11-19T14:59:52;2.40;;;2.40;;
10096;SDS011;5087;42.662;23.466;2023-11-19T15:02:20;2.60;;;2.60;;
10096;SDS011;5087;42.662;23.466;2023-11-19T15:04:47;2.70;;;2.70;;
10096;SDS011;5087;42.662;23.466;2023-11-19T15:07:14;2.70;;;2.70;;
10096;SDS011;5087;42.662;23.466;2023-11-19T15:09:42;2.63;;;2.63;;